Time;durP1;ratioP1;P1;durP2;ratioP2;P2;SDS_P1;SDS_P2;PMS_P1;PMS_P2;Temp;Humidity;BMP_temperature;BMP_pressure;BME280_temperature;BME280_humidity;BME280_pressure;Samples;Min_cycle;Max_cycle;Signal;HPM_P1;HPM_P2
2021/03/14 00:01:04;;;;;;;4.65;1.05;;;4.30;99.90;;;;;;4808428;29;20058;-77
2021/03/14 00:03:36;;;;;;;0.80;0.50;;;4.30;99.90;;;;;;4808791;29;20156;-76
2021/03/14 00:06:03;;;;;;;0.80;0.40;;;4.30;99.90;;;;;;4808480;29;20050;-78
2021/03/14 00:08:30;;;;;;;2.05;1.02;;;4.30;99.90;;;;;;4824150;29;20054;-77
2021/03/14 00:11:05;;;;;;;0.77;0.57;;;4.30;99.90;;;;;;4823460;29;20084;-77
2021/03/14 00:13:38;;;;;;;3.42;0.77;;;4.30;99.90;;;;;;4809909;29;20137;-77
2021/03/14 00:16:09;;;;;;;1.17;0.60;;;4.20;99.90;;;;;;4827284;29;20054;-77
2021/03/14 00:18:42;;;;;;;2.10;0.52;;;4.20;99.90;;;;;;4813030;29;20054;-77
2021/03/14 00:21:10;;;;;;;1.05;0.70;;;4.20;99.90;;;;;;4827578;29;20058;-77
2021/03/14 00:23:41;;;;;;;1.67;0.55;;;4.20;99.90;;;;;;4811310;29;20102;-78
2021/03/14 00:26:12;;;;;;;1.70;0.70;;;4.20;99.90;;;;;;4796526;29;20518;-77
2021/03/14 00:28:44;;;;;;;0.85;0.52;;;4.10;99.90;;;;;;4829934;29;20659;-78
2021/03/14 00:31:10;;;;;;;2.08;0.55;;;4.10;99.90;;;;;;4833879;29;20054;-78
2021/03/14 00:33:41;;;;;;;0.57;0.40;;;4.00;99.90;;;;;;4838203;29;20134;-78
2021/03/14 00:36:08;;;;;;;1.40;0.60;;;4.00;99.90;;;;;;4828893;29;20579;-77
2021/03/14 00:38:39;;;;;;;1.55;0.60;;;3.90;99.90;;;;;;4843898;29;20133;-78
2021/03/14 00:41:11;;;;;;;3.38;0.40;;;3.90;99.90;;;;;;4834558;29;20050;-78
2021/03/14 00:43:37;;;;;;;2.20;0.68;;;3.80;99.90;;;;;;4811132;29;20474;-79
2021/03/14 00:46:09;;;;;;;1.98;0.43;;;3.80;99.90;;;;;;4810554;29;20046;-78
2021/03/14 00:48:44;;;;;;;2.17;0.40;;;3.80;99.90;;;;;;4828598;29;20042;-77
2021/03/14 00:51:10;;;;;;;1.27;0.60;;;3.80;99.90;;;;;;4809904;29;20399;-77
2021/03/14 00:53:42;;;;;;;2.33;0.52;;;3.70;99.90;;;;;;4811229;29;20434;-78
2021/03/14 00:56:19;;;;;;;0.70;0.35;;;3.70;99.90;;;;;;4813274;29;20042;-78
2021/03/14 00:58:50;;;;;;;0.30;0.30;;;3.70;99.90;;;;;;4797314;29;20472;-77
2021/03/14 01:01:22;;;;;;;0.60;0.30;;;3.70;99.90;;;;;;4842366;29;20047;-77
2021/03/14 01:03:54;;;;;;;1.75;0.57;;;3.60;99.90;;;;;;4827637;29;20050;-77
2021/03/14 01:06:25;;;;;;;1.00;0.30;;;3.60;99.90;;;;;;4828792;29;20051;-78
2021/03/14 01:08:52;;;;;;;0.28;0.28;;;3.50;99.90;;;;;;4812662;29;20055;-77
2021/03/14 01:11:24;;;;;;;2.05;0.60;;;3.40;99.90;;;;;;4829148;29;20057;-77
2021/03/14 01:14:08;;;;;;;0.38;0.38;;;3.40;99.90;;;;;;4813673;29;20109;-78
2021/03/14 01:16:52;;;;;;;0.88;0.22;;;3.40;99.90;;;;;;4842948;29;20046;-78
2021/03/14 01:19:26;;;;;;;0.95;0.40;;;3.40;99.90;;;;;;4810611;29;20042;-78
2021/03/14 01:21:54;;;;;;;2.28;0.40;;;3.30;99.90;;;;;;4811775;29;20058;-77
2021/03/14 01:24:22;;;;;;;0.32;0.22;;;3.30;99.90;;;;;;4811333;29;20104;-78
2021/03/14 01:26:48;;;;;;;0.43;0.40;;;3.20;99.90;;;;;;4810991;29;20058;-77
2021/03/14 01:29:19;;;;;;;0.70;0.40;;;3.20;99.90;;;;;;4811329;29;20421;-78
2021/03/14 01:31:46;;;;;;;1.60;0.40;;;3.20;99.90;;;;;;4811732;29;20107;-77
2021/03/14 01:34:17;;;;;;;0.30;0.22;;;3.20;99.90;;;;;;4811447;29;20047;-78
2021/03/14 01:36:43;;;;;;;0.82;0.25;;;3.20;99.90;;;;;;4811237;29;20115;-77
2021/03/14 01:39:09;;;;;;;1.02;0.47;;;3.20;99.90;;;;;;4810305;29;20114;-78
2021/03/14 01:41:41;;;;;;;0.65;0.30;;;3.20;99.90;;;;;;4811772;29;20050;-77
2021/03/14 01:44:07;;;;;;;0.60;0.60;;;3.20;99.90;;;;;;4810898;29;20148;-77
2021/03/14 01:46:33;;;;;;;2.85;0.40;;;3.20;99.90;;;;;;4826361;29;20054;-77
2021/03/14 01:49:05;;;;;;;0.63;0.28;;;3.20;99.90;;;;;;4810860;29;20062;-78
2021/03/14 01:51:36;;;;;;;0.65;0.30;;;3.20;99.90;;;;;;4811391;29;20050;-78
2021/03/14 01:54:08;;;;;;;1.85;0.30;;;3.20;99.90;;;;;;4826527;29;20050;-78
2021/03/14 01:56:35;;;;;;;1.35;0.25;;;3.20;99.90;;;;;;4826350;29;20050;-77
2021/03/14 01:59:07;;;;;;;0.73;0.25;;;3.30;99.90;;;;;;4810749;29;20052;-77
2021/03/14 02:01:39;;;;;;;2.35;0.30;;;3.30;99.90;;;;;;4811772;29;20525;-77
2021/03/14 02:04:10;;;;;;;0.52;0.30;;;3.30;99.90;;;;;;4811258;29;20048;-77
2021/03/14 02:06:41;;;;;;;0.50;0.30;;;3.30;99.90;;;;;;4826156;29;20054;-77
2021/03/14 02:09:12;;;;;;;1.55;0.30;;;3.30;99.90;;;;;;4809990;29;20069;-78
2021/03/14 02:11:45;;;;;;;0.47;0.35;;;3.30;99.90;;;;;;4826199;29;20103;-77
2021/03/14 02:14:17;;;;;;;0.45;0.30;;;3.30;99.90;;;;;;4840833;29;20145;-78
2021/03/14 02:16:44;;;;;;;0.30;0.30;;;3.40;99.90;;;;;;4810271;29;20050;-78
2021/03/14 02:19:19;;;;;;;0.45;0.28;;;3.40;99.90;;;;;;4839791;29;20137;-77
2021/03/14 02:21:46;;;;;;;0.32;0.30;;;3.40;99.90;;;;;;4809904;29;20172;-77
2021/03/14 02:24:24;;;;;;;0.45;0.30;;;3.40;99.90;;;;;;4810695;29;20616;-77
2021/03/14 02:27:02;;;;;;;0.20;0.20;;;3.40;99.90;;;;;;4810959;29;20150;-78
2021/03/14 02:29:30;;;;;;;0.80;0.40;;;3.40;99.90;;;;;;4825206;29;20134;-77
2021/03/14 02:31:58;;;;;;;0.30;0.30;;;3.40;99.90;;;;;;4809998;29;20058;-77
2021/03/14 02:34:36;;;;;;;1.25;0.43;;;3.30;99.90;;;;;;4825532;29;20047;-77
2021/03/14 02:37:08;;;;;;;0.30;0.30;;;3.30;99.90;;;;;;4810074;29;20145;-77
2021/03/14 02:39:40;;;;;;;0.70;0.40;;;3.30;99.90;;;;;;4839362;29;20068;-77
2021/03/14 02:42:13;;;;;;;0.40;0.30;;;3.30;99.90;;;;;;4825601;29;20111;-77
2021/03/14 02:44:49;;;;;;;0.77;0.32;;;3.30;99.90;;;;;;4840093;29;20537;-77
2021/03/14 02:47:19;;;;;;;1.23;0.30;;;3.30;99.90;;;;;;4825263;29;20050;-78
2021/03/14 02:49:48;;;;;;;2.47;0.70;;;3.30;99.90;;;;;;4809655;29;20157;-78
2021/03/14 02:52:21;;;;;;;0.68;0.40;;;3.30;99.90;;;;;;4810442;29;20039;-77
2021/03/14 02:54:54;;;;;;;0.43;0.30;;;3.20;99.90;;;;;;4809995;29;20051;-78
2021/03/14 02:57:26;;;;;;;0.68;0.63;;;3.20;99.90;;;;;;4826046;29;20095;-77
2021/03/14 02:59:54;;;;;;;0.70;0.30;;;3.20;99.90;;;;;;4839829;29;20586;-78
2021/03/14 03:02:27;;;;;;;0.32;0.30;;;3.20;99.90;;;;;;4840260;29;20050;-77
2021/03/14 03:04:58;;;;;;;0.25;0.25;;;3.20;99.90;;;;;;4809534;29;20059;-78
2021/03/14 03:07:25;;;;;;;0.43;0.43;;;3.30;99.90;;;;;;4809890;29;20061;-77
2021/03/14 03:09:57;;;;;;;0.85;0.40;;;3.30;99.90;;;;;;4809349;29;20133;-77
2021/03/14 03:12:28;;;;;;;0.40;0.40;;;3.30;99.90;;;;;;4825396;29;20055;-77
2021/03/14 03:14:57;;;;;;;0.52;0.45;;;3.30;99.90;;;;;;4840434;29;20047;-78
2021/03/14 03:17:29;;;;;;;0.73;0.40;;;3.20;99.90;;;;;;4810804;29;20054;-77
2021/03/14 03:20:01;;;;;;;0.40;0.40;;;3.20;99.90;;;;;;4824704;29;20577;-77
2021/03/14 03:22:28;;;;;;;0.45;0.43;;;3.20;99.90;;;;;;4824080;29;20403;-77
2021/03/14 03:24:54;;;;;;;0.40;0.40;;;3.20;99.90;;;;;;4809173;29;20077;-77
2021/03/14 03:27:26;;;;;;;0.93;0.60;;;3.20;99.90;;;;;;4810763;29;20476;-77
2021/03/14 03:29:52;;;;;;;0.63;0.50;;;3.10;99.90;;;;;;4810402;29;20122;-77
2021/03/14 03:32:19;;;;;;;0.50;0.50;;;3.00;99.90;;;;;;4809138;29;20182;-79
2021/03/14 03:34:52;;;;;;;1.52;0.50;;;2.70;99.90;;;;;;4841811;29;20049;-78
2021/03/14 03:37:18;;;;;;;1.15;0.50;;;2.30;99.90;;;;;;4810446;29;20050;-78
2021/03/14 03:39:50;;;;;;;0.30;0.30;;;2.10;99.90;;;;;;4839601;29;20139;-77
2021/03/14 03:42:20;;;;;;;0.30;0.30;;;2.00;99.90;;;;;;4809685;29;20484;-77
2021/03/14 03:44:47;;;;;;;0.30;0.25;;;2.00;99.90;;;;;;4810434;29;20149;-77
2021/03/14 03:47:15;;;;;;;1.90;0.25;;;2.10;99.90;;;;;;4810300;29;20107;-77
2021/03/14 03:49:46;;;;;;;0.20;0.20;;;2.10;99.90;;;;;;4811660;29;20078;-77
2021/03/14 03:52:19;;;;;;;0.30;0.30;;;2.10;99.90;;;;;;4829100;29;20108;-77
2021/03/14 03:54:52;;;;;;;0.30;0.30;;;2.10;99.90;;;;;;4828840;29;20050;-77
2021/03/14 03:57:20;;;;;;;0.25;0.25;;;2.20;99.90;;;;;;4844813;29;20575;-77
2021/03/14 03:59:52;;;;;;;0.25;0.15;;;2.20;99.90;;;;;;4830470;29;20054;-77
2021/03/14 04:02:24;;;;;;;0.20;0.20;;;2.20;99.90;;;;;;4816018;29;20080;-79
2021/03/14 04:04:51;;;;;;;0.20;0.20;;;2.20;99.90;;;;;;4815580;29;20122;-77
2021/03/14 04:07:18;;;;;;;0.20;0.20;;;2.20;99.90;;;;;;4846342;29;20319;-77
2021/03/14 04:09:45;;;;;;;0.22;0.20;;;2.20;99.90;;;;;;4815915;29;20511;-78
2021/03/14 04:12:17;;;;;;;0.20;0.20;;;2.20;99.90;;;;;;4828702;29;20070;-77
2021/03/14 04:14:45;;;;;;;0.20;0.20;;;2.30;99.90;;;;;;4843006;29;20073;-77
2021/03/14 04:17:12;;;;;;;0.28;0.28;;;2.20;99.90;;;;;;4812678;29;20114;-78
2021/03/14 04:19:46;;;;;;;1.00;0.30;;;2.20;99.90;;;;;;4812079;29;20050;-77
2021/03/14 04:22:18;;;;;;;0.45;0.40;;;2.20;99.90;;;;;;4828176;29;20074;-77
2021/03/14 04:24:50;;;;;;;0.50;0.40;;;2.10;99.90;;;;;;4812533;29;20503;-77
2021/03/14 04:27:18;;;;;;;0.52;0.40;;;2.10;99.90;;;;;;4812202;29;20123;-77
2021/03/14 04:29:50;;;;;;;1.67;0.40;;;2.10;99.90;;;;;;4841928;29;20060;-77
2021/03/14 04:32:17;;;;;;;0.60;0.40;;;2.00;99.90;;;;;;4811466;29;20050;-77
2021/03/14 04:34:45;;;;;;;1.23;0.50;;;2.00;99.90;;;;;;4842152;29;20082;-77
2021/03/14 04:37:12;;;;;;;1.02;0.40;;;2.00;99.90;;;;;;4811880;29;20050;-77
2021/03/14 04:39:40;;;;;;;0.60;0.40;;;1.90;99.90;;;;;;4811397;29;20149;-77
2021/03/14 04:42:12;;;;;;;0.60;0.43;;;1.70;99.90;;;;;;4812648;29;20078;-77
2021/03/14 04:44:39;;;;;;;0.40;0.30;;;1.70;99.90;;;;;;4811829;29;20142;-77
2021/03/14 04:47:06;;;;;;;0.40;0.35;;;1.60;99.90;;;;;;4812077;29;20050;-77
2021/03/14 04:49:37;;;;;;;0.55;0.45;;;1.60;99.90;;;;;;4811667;29;20075;-78
2021/03/14 04:52:10;;;;;;;0.45;0.43;;;1.60;99.90;;;;;;4826847;29;20121;-77
2021/03/14 04:54:38;;;;;;;0.55;0.40;;;1.60;99.90;;;;;;4811346;29;20146;-77
2021/03/14 04:57:10;;;;;;;0.38;0.38;;;1.60;99.90;;;;;;4826727;29;20042;-77
2021/03/14 04:59:43;;;;;;;0.50;0.50;;;1.60;99.90;;;;;;4811058;29;20075;-77
2021/03/14 05:02:12;;;;;;;0.70;0.40;;;1.60;99.90;;;;;;4825481;29;20068;-77
2021/03/14 05:04:40;;;;;;;0.63;0.57;;;1.60;99.90;;;;;;4826545;29;20498;-77
2021/03/14 05:07:12;;;;;;;0.50;0.50;;;1.70;99.90;;;;;;4810655;29;20117;-77
2021/03/14 05:09:44;;;;;;;0.60;0.40;;;1.70;99.90;;;;;;4811793;29;20291;-76
2021/03/14 05:12:11;;;;;;;0.40;0.40;;;1.70;99.90;;;;;;4826171;29;20046;-77
2021/03/14 05:14:38;;;;;;;0.35;0.30;;;1.70;99.90;;;;;;4811749;29;20131;-77
2021/03/14 05:17:12;;;;;;;0.30;0.30;;;1.70;99.90;;;;;;4826291;29;20042;-78
2021/03/14 05:19:39;;;;;;;0.30;0.30;;;1.70;99.90;;;;;;4811614;29;20050;-77
2021/03/14 05:22:05;;;;;;;1.25;0.30;;;1.70;99.90;;;;;;4812032;29;20150;-78
2021/03/14 05:24:39;;;;;;;0.30;0.30;;;1.80;99.90;;;;;;4812160;29;20050;-78
2021/03/14 05:27:11;;;;;;;0.30;0.30;;;1.80;99.90;;;;;;4841830;29;20149;-77
2021/03/14 05:29:45;;;;;;;0.70;0.30;;;1.80;99.90;;;;;;4811529;29;20050;-78
2021/03/14 05:32:16;;;;;;;0.30;0.30;;;1.80;99.90;;;;;;4812134;29;20570;-78
2021/03/14 05:34:43;;;;;;;0.40;0.40;;;1.80;99.90;;;;;;4804047;29;20483;-77
2021/03/14 05:37:09;;;;;;;0.30;0.30;;;1.80;99.90;;;;;;4803947;29;20610;-77
2021/03/14 05:39:35;;;;;;;0.73;0.40;;;1.80;99.90;;;;;;4821676;29;20137;-78
2021/03/14 05:42:06;;;;;;;0.95;0.38;;;1.80;99.90;;;;;;4797401;29;20058;-79
2021/03/14 05:44:33;;;;;;;0.22;0.22;;;1.80;99.90;;;;;;4810683;29;20117;-79
2021/03/14 05:47:06;;;;;;;0.30;0.30;;;1.90;99.90;;;;;;4811364;29;20046;-77
2021/03/14 05:49:37;;;;;;;0.70;0.30;;;1.90;99.90;;;;;;4810347;29;20054;-78
2021/03/14 05:52:06;;;;;;;1.67;0.35;;;1.90;99.90;;;;;;4809789;29;20074;-78
2021/03/14 05:54:34;;;;;;;0.40;0.40;;;1.90;99.90;;;;;;4794863;29;20153;-79
2021/03/14 05:57:02;;;;;;;0.88;0.40;;;2.00;99.90;;;;;;4810867;29;20149;-78
2021/03/14 05:59:34;;;;;;;0.38;0.38;;;2.00;99.90;;;;;;4812456;29;20054;-78
2021/03/14 06:02:01;;;;;;;0.30;0.30;;;1.90;99.90;;;;;;4814949;29;20050;-77
2021/03/14 06:04:30;;;;;;;1.17;0.60;;;1.90;99.90;;;;;;4812787;29;20058;-79
2021/03/14 06:06:57;;;;;;;0.80;0.60;;;1.80;99.90;;;;;;4803673;29;20089;-79
2021/03/14 06:09:24;;;;;;;0.60;0.47;;;1.70;99.90;;;;;;4798361;29;20054;-77
2021/03/14 06:11:50;;;;;;;1.15;0.50;;;1.60;99.90;;;;;;4806895;29;20046;-80
2021/03/14 06:14:22;;;;;;;1.00;0.77;;;1.60;99.90;;;;;;4805398;29;20053;-77
2021/03/14 06:16:48;;;;;;;1.10;0.82;;;1.60;99.90;;;;;;4811311;29;20527;-78
2021/03/14 06:19:19;;;;;;;0.80;0.70;;;1.60;99.90;;;;;;4802381;29;20099;-77
2021/03/14 06:21:46;;;;;;;0.88;0.60;;;1.50;99.90;;;;;;4805907;29;20503;-79
2021/03/14 06:24:17;;;;;;;1.10;0.63;;;1.50;99.90;;;;;;4829752;29;20077;-77
2021/03/14 06:26:48;;;;;;;0.60;0.50;;;1.50;99.90;;;;;;4805981;29;20047;-79
2021/03/14 06:29:17;;;;;;;0.90;0.52;;;1.50;99.90;;;;;;4804466;29;20085;-78
2021/03/14 06:31:49;;;;;;;1.70;0.50;;;1.40;99.90;;;;;;4812879;29;20050;-79
2021/03/14 06:34:33;;;;;;;1.63;0.70;;;1.40;99.90;;;;;;4807350;29;20093;-78
2021/03/14 06:37:11;;;;;;;1.00;0.60;;;1.40;99.90;;;;;;4831935;29;20578;-78
2021/03/14 06:39:40;;;;;;;0.60;0.43;;;1.40;99.90;;;;;;4819009;29;20054;-78
2021/03/14 06:42:07;;;;;;;0.50;0.43;;;1.40;99.90;;;;;;4815744;29;20061;-79
2021/03/14 06:44:36;;;;;;;0.60;0.47;;;1.30;99.90;;;;;;4817017;29;20061;-77
2021/03/14 06:47:07;;;;;;;1.40;0.60;;;1.30;99.90;;;;;;4811369;29;20081;-78
2021/03/14 06:49:41;;;;;;;0.40;0.40;;;1.30;99.90;;;;;;4817060;29;20050;-78
2021/03/14 06:52:08;;;;;;;0.50;0.40;;;1.20;99.90;;;;;;4816555;29;20062;-78
2021/03/14 06:54:49;;;;;;;1.90;0.50;;;1.20;99.90;;;;;;4816381;29;20133;-78
2021/03/14 06:57:21;;;;;;;0.60;0.60;;;1.10;99.90;;;;;;4802833;29;20059;-78
2021/03/14 06:59:59;;;;;;;1.23;1.00;;;1.10;99.90;;;;;;4831302;29;20137;-78
2021/03/14 07:02:29;;;;;;;2.25;1.67;;;1.20;99.90;;;;;;4802355;29;20050;-78
2021/03/14 07:05:03;;;;;;;1.75;1.42;;;1.20;99.90;;;;;;4816352;29;20583;-78
2021/03/14 07:07:39;;;;;;;1.65;0.75;;;1.30;99.90;;;;;;4832091;29;20050;-78
2021/03/14 07:10:17;;;;;;;4.53;0.88;;;1.20;99.90;;;;;;4831513;29;20111;-78
2021/03/14 07:12:47;;;;;;;2.88;1.92;;;1.20;99.90;;;;;;4816628;29;20070;-78
2021/03/14 07:15:23;;;;;;;2.13;1.63;;;1.10;99.90;;;;;;4835908;29;20515;-78
2021/03/14 07:18:00;;;;;;;2.30;0.70;;;1.10;99.90;;;;;;4815747;29;20137;-78
2021/03/14 07:20:31;;;;;;;1.23;0.95;;;1.10;99.90;;;;;;4815746;29;20079;-79
2021/03/14 07:23:05;;;;;;;;;;;1.10;99.90;;;;;;4815973;29;20058;-78
2021/03/14 07:25:39;;;;;;;2.40;0.80;;;1.10;99.90;;;;;;4800963;29;19924;-78
2021/03/14 07:28:08;;;;;;;1.00;0.70;;;1.20;99.90;;;;;;4830789;29;20137;-80
2021/03/14 07:30:40;;;;;;;1.55;1.10;;;1.20;99.90;;;;;;4830239;29;20082;-79
2021/03/14 07:33:11;;;;;;;1.13;0.60;;;1.10;99.90;;;;;;4831341;29;20540;-78
2021/03/14 07:35:38;;;;;;;1.67;0.70;;;1.10;99.90;;;;;;4831884;29;20107;-78
2021/03/14 07:38:05;;;;;;;0.98;0.70;;;1.10;99.90;;;;;;4815649;29;20066;-78
2021/03/14 07:40:37;;;;;;;1.40;0.98;;;1.10;99.90;;;;;;4815422;29;20050;-78
2021/03/14 07:43:05;;;;;;;1.33;0.88;;;1.10;99.90;;;;;;4801087;29;20050;-78
2021/03/14 07:45:33;;;;;;;2.42;0.90;;;1.20;99.90;;;;;;4831374;29;20050;-77
2021/03/14 07:48:01;;;;;;;1.08;0.70;;;1.20;99.90;;;;;;4815697;29;20418;-78
2021/03/14 07:50:38;;;;;;;1.52;0.60;;;1.20;99.90;;;;;;4814847;29;20047;-78
2021/03/14 07:53:10;;;;;;;0.65;0.50;;;1.30;99.90;;;;;;4829613;29;20050;-78
2021/03/14 07:55:38;;;;;;;1.00;0.68;;;1.30;99.90;;;;;;4830816;29;20085;-79
2021/03/14 07:58:11;;;;;;;1.05;0.47;;;1.50;99.90;;;;;;4830834;29;20050;-78
2021/03/14 08:00:41;;;;;;;2.28;0.55;;;1.60;99.90;;;;;;4830276;29;20058;-78
2021/03/14 08:03:09;;;;;;;2.55;0.80;;;1.80;99.90;;;;;;4815830;29;20051;-78
2021/03/14 08:05:49;;;;;;;0.73;0.52;;;2.00;99.90;;;;;;4816372;29;20055;-78
2021/03/14 08:08:25;;;;;;;1.45;1.00;;;2.10;99.90;;;;;;4831278;29;20058;-78
2021/03/14 08:10:52;;;;;;;2.00;0.75;;;2.20;99.90;;;;;;4815252;29;20050;-78
2021/03/14 08:13:31;;;;;;;1.27;0.65;;;2.30;99.90;;;;;;4800252;29;20094;-78
2021/03/14 08:16:03;;;;;;;2.92;0.93;;;2.40;99.90;;;;;;4831147;29;20095;-78
2021/03/14 08:18:48;;;;;;;2.80;0.90;;;2.50;99.90;;;;;;4799060;29;20046;-79
2021/03/14 08:21:21;;;;;;;3.85;2.05;;;2.70;99.90;;;;;;4831193;29;20489;-78
2021/03/14 08:23:52;;;;;;;3.88;1.27;;;2.80;99.90;;;;;;4815980;29;20107;-78
2021/03/14 08:26:34;;;;;;;9.98;4.75;;;2.80;99.90;;;;;;4828580;29;20066;-78
2021/03/14 08:29:09;;;;;;;4.35;1.75;;;2.90;99.90;;;;;;4830704;29;20057;-78
2021/03/14 08:31:45;;;;;;;6.70;3.08;;;3.00;99.90;;;;;;4831754;29;20050;-79
2021/03/14 08:34:32;;;;;;;11.75;3.72;;;3.00;99.90;;;;;;4831301;29;20038;-77
2021/03/14 08:37:22;;;;;;;5.68;1.70;;;3.00;99.90;;;;;;4830707;29;20054;-77
2021/03/14 08:39:57;;;;;;;3.95;1.98;;;3.10;99.90;;;;;;4826923;29;20041;-78
2021/03/14 08:42:55;;;;;;;7.55;3.20;;;3.10;99.90;;;;;;4817423;29;20050;-78
2021/03/14 08:45:34;;;;;;;7.47;3.17;;;3.30;99.90;;;;;;4817561;29;20070;-78
2021/03/14 08:48:26;;;;;;;7.75;3.92;;;3.20;99.90;;;;;;4836437;29;20046;-78
2021/03/14 08:50:55;;;;;;;8.75;3.20;;;3.10;99.90;;;;;;4837177;29;20083;-78
2021/03/14 08:53:37;;;;;;;3.95;2.45;;;3.00;99.90;;;;;;4815297;29;20238;-78
2021/03/14 08:56:18;;;;;;;7.32;4.03;;;2.90;99.90;;;;;;4815866;29;20499;-78
2021/03/14 08:59:20;;;;;;;5.38;2.95;;;2.90;99.90;;;;;;4816161;29;20046;-78
2021/03/14 09:01:55;;;;;;;2.38;1.00;;;2.80;99.90;;;;;;4801344;29;20396;-78
2021/03/14 09:04:34;;;;;;;2.90;2.20;;;2.70;99.90;;;;;;4829080;29;20768;-78
2021/03/14 09:07:16;;;;;;;5.93;2.65;;;2.70;99.90;;;;;;4816742;29;20117;-78
2021/03/14 09:09:50;;;;;;;3.63;1.70;;;2.80;99.90;;;;;;4815000;29;20054;-77
2021/03/14 09:12:36;;;;;;;1.83;1.50;;;2.90;99.90;;;;;;4802017;29;20065;-78
2021/03/14 09:15:18;;;;;;;5.03;1.35;;;3.10;99.90;;;;;;4830490;29;20046;-78
2021/03/14 09:18:12;;;;;;;2.45;1.15;;;3.20;99.90;;;;;;4830140;29;20502;-78
2021/03/14 09:20:44;;;;;;;2.63;1.10;;;3.30;99.90;;;;;;4944349;24;20058;-78
2021/03/14 09:23:13;;;;;;;2.30;1.08;;;3.40;99.90;;;;;;4819289;29;20429;-78
2021/03/14 09:25:54;;;;;;;5.00;1.00;;;3.70;99.90;;;;;;4820736;29;20106;-78
2021/03/14 09:28:26;;;;;;;2.13;0.90;;;3.70;99.90;;;;;;4835355;29;20042;-78
2021/03/14 09:30:59;;;;;;;1.40;0.80;;;3.90;99.90;;;;;;4815435;29;20070;-78
2021/03/14 09:33:26;;;;;;;2.83;1.67;;;3.80;99.90;;;;;;4801390;29;20069;-78
2021/03/14 09:36:08;;;;;;;3.53;1.05;;;3.70;99.90;;;;;;4816044;29;20050;-77
2021/03/14 09:45:05;;;;;;;2.25;0.90;;;3.60;99.90;;;;;;4847368;29;20058;-78
2021/03/14 09:47:32;;;;;;;1.95;0.75;;;3.60;99.90;;;;;;4833592;29;20053;-78
2021/03/14 09:50:07;;;;;;;2.75;1.20;;;3.60;99.90;;;;;;4807644;29;20061;-79
2021/03/14 09:52:38;;;;;;;2.40;0.82;;;3.70;99.90;;;;;;4801781;29;20137;-78
2021/03/14 09:55:06;;;;;;;2.60;0.70;;;3.90;99.90;;;;;;4799510;29;20054;-77
2021/03/14 09:57:41;;;;;;;1.40;0.70;;;4.10;99.90;;;;;;4831439;29;20054;-77
2021/03/14 10:00:19;;;;;;;1.27;0.82;;;4.30;99.90;;;;;;4831760;29;20062;-77
2021/03/14 10:03:15;;;;;;;3.25;0.93;;;4.40;99.90;;;;;;4830258;29;20046;-77
2021/03/14 10:06:07;;;;;;;3.42;0.98;;;4.60;99.90;;;;;;4833564;29;20471;-77
2021/03/14 10:11:45;;;;;;;3.35;2.08;;;4.70;99.90;;;;;;5248809;23;20509;-78
2021/03/14 10:14:14;;;;;;;3.13;1.00;;;4.50;99.90;;;;;;4836531;29;20105;-77
2021/03/14 10:16:42;;;;;;;2.40;0.75;;;4.40;99.90;;;;;;4849153;29;20046;-78
2021/03/14 10:19:10;;;;;;;9.70;4.65;;;4.30;99.90;;;;;;4835558;29;20052;-80
2021/03/14 10:21:47;;;;;;;3.33;1.98;;;4.10;99.90;;;;;;4836099;29;20129;-77
2021/03/14 10:24:45;;;;;;;1.33;1.13;;;4.00;99.90;;;;;;4836549;29;20053;-78
2021/03/14 10:27:26;;;;;;;8.98;2.72;;;3.90;99.90;;;;;;4834731;29;20042;-78
2021/03/14 10:30:21;;;;;;;13.18;5.82;;;3.90;99.90;;;;;;4821827;29;20050;-77
2021/03/14 10:32:56;;;;;;;13.75;4.95;;;3.90;99.90;;;;;;4817636;29;20108;-77
2021/03/14 10:35:30;;;;;;;5.20;2.80;;;3.90;99.90;;;;;;4830698;29;20070;-77
2021/03/14 10:38:15;;;;;;;;;;;3.80;99.90;;;;;;4818058;29;20295;-77
2021/03/14 10:40:45;;;;;;;2.03;0.90;;;3.90;99.90;;;;;;4816543;29;20340;-77
2021/03/14 10:43:19;;;;;;;1.67;1.10;;;3.90;99.90;;;;;;4831667;29;20435;-77
2021/03/14 10:45:54;;;;;;;3.80;1.60;;;3.80;99.90;;;;;;4833030;29;20094;-80
2021/03/14 10:48:29;;;;;;;3.70;0.82;;;3.80;99.90;;;;;;4831478;29;20455;-77
2021/03/14 10:51:03;;;;;;;3.92;1.00;;;3.90;99.90;;;;;;4816947;29;20464;-77
2021/03/14 10:53:33;;;;;;;1.33;0.73;;;3.90;99.90;;;;;;4831472;29;20046;-77
2021/03/14 10:56:11;;;;;;;1.38;1.20;;;3.90;99.90;;;;;;4831860;29;20128;-78
2021/03/14 10:58:44;;;;;;;4.90;1.70;;;3.90;99.90;;;;;;4830023;29;20057;-77
2021/03/14 11:01:40;;;;;;;2.08;1.50;;;4.10;99.90;;;;;;4832104;29;20060;-77
2021/03/14 11:04:09;;;;;;;4.28;1.10;;;4.10;99.90;;;;;;4832015;29;20054;-77
2021/03/14 11:06:47;;;;;;;4.22;2.10;;;4.20;99.90;;;;;;4818475;29;20054;-77
2021/03/14 11:09:26;;;;;;;3.40;1.60;;;4.10;99.90;;;;;;4830867;29;20064;-77
2021/03/14 11:11:54;;;;;;;3.47;1.30;;;4.10;99.90;;;;;;4832608;29;20146;-78
2021/03/14 11:14:39;;;;;;;2.00;1.30;;;4.10;99.90;;;;;;4816910;29;20053;-78
2021/03/14 11:17:32;;;;;;;3.10;0.90;;;4.10;99.90;;;;;;4831102;29;20049;-78
2021/03/14 11:20:22;;;;;;;2.70;1.65;;;4.20;99.90;;;;;;4895315;24;20068;-77
2021/03/14 11:23:00;;;;;;;2.70;1.30;;;4.30;99.90;;;;;;4831656;29;20049;-77
2021/03/14 11:25:37;;;;;;;3.88;2.20;;;4.50;99.90;;;;;;4845937;29;20166;-77
2021/03/14 11:28:11;;;;;;;2.67;1.20;;;4.60;99.90;;;;;;4831845;29;20074;-77
2021/03/14 11:30:42;;;;;;;2.63;1.15;;;4.80;99.90;;;;;;4932072;24;20057;-77
2021/03/14 11:33:14;;;;;;;2.38;0.85;;;4.90;99.90;;;;;;4798200;29;20057;-77
2021/03/14 11:36:00;;;;;;;4.25;0.95;;;5.00;99.90;;;;;;4812342;29;20073;-78
2021/03/14 11:38:49;;;;;;;3.78;1.13;;;5.10;99.90;;;;;;4802501;29;20055;-78
2021/03/14 11:41:24;;;;;;;4.35;1.40;;;5.10;99.90;;;;;;4795376;29;20054;-77
2021/03/14 11:44:02;;;;;;;3.10;1.10;;;5.10;99.90;;;;;;4797417;29;20050;-77
2021/03/14 11:46:30;;;;;;;1.50;0.90;;;5.10;99.90;;;;;;4797919;29;20062;-77
2021/03/14 11:49:15;;;;;;;4.25;1.10;;;5.00;99.90;;;;;;4849077;24;20402;-77
2021/03/14 11:51:47;;;;;;;2.63;0.90;;;5.00;99.90;;;;;;4815779;29;20060;-77
2021/03/14 11:54:17;;;;;;;1.55;0.70;;;5.00;99.90;;;;;;4815276;29;20046;-77
2021/03/14 11:57:06;;;;;;;2.63;1.20;;;4.90;99.90;;;;;;4817528;29;20060;-77
2021/03/14 11:59:43;;;;;;;2.95;1.60;;;4.90;99.90;;;;;;4830877;29;20049;-77
2021/03/14 12:02:15;;;;;;;2.47;1.48;;;4.90;99.90;;;;;;4845647;29;20049;-77
2021/03/14 12:05:07;;;;;;;6.57;1.27;;;5.00;99.90;;;;;;4830696;29;20070;-77
2021/03/14 12:07:36;;;;;;;2.13;0.60;;;5.00;99.90;;;;;;4830974;29;20114;-77
2021/03/14 12:10:04;;;;;;;2.28;0.70;;;5.10;99.90;;;;;;4832993;29;20434;-77
2021/03/14 12:12:35;;;;;;;2.30;0.90;;;5.10;99.90;;;;;;4844688;29;20133;-78
2021/03/14 12:15:15;;;;;;;1.90;0.60;;;5.20;99.90;;;;;;4842673;29;20050;-77
2021/03/14 12:17:50;;;;;;;1.55;0.80;;;5.30;99.90;;;;;;4819252;29;20057;-78
2021/03/14 12:20:27;;;;;;;2.03;0.80;;;5.30;99.90;;;;;;4831955;29;20118;-78
2021/03/14 12:23:00;;;;;;;2.60;0.85;;;5.30;99.90;;;;;;4816337;29;20069;-78
2021/03/14 12:25:38;;;;;;;2.38;0.85;;;5.30;98.30;;;;;;4832208;29;20133;-78
2021/03/14 12:28:16;;;;;;;2.03;1.30;;;5.30;97.80;;;;;;4816387;29;20056;-78
2021/03/14 12:30:51;;;;;;;1.23;0.98;;;5.30;95.70;;;;;;4831074;29;20045;-78
2021/03/14 12:33:19;;;;;;;2.13;0.82;;;5.30;96.20;;;;;;4829302;29;20046;-78
2021/03/14 12:35:51;;;;;;;4.97;1.17;;;5.30;96.60;;;;;;4829510;29;20048;-77
2021/03/14 12:38:35;;;;;;;6.43;1.45;;;5.30;98.80;;;;;;4830697;29;20063;-78
2021/03/14 12:41:02;;;;;;;2.50;1.10;;;5.30;99.80;;;;;;4828892;29;20258;-77
2021/03/14 12:43:34;;;;;;;1.85;0.90;;;5.30;99.90;;;;;;4829618;29;20050;-77
2021/03/14 12:46:06;;;;;;;2.78;1.10;;;5.30;99.90;;;;;;4828796;29;20058;-77
2021/03/14 12:48:33;;;;;;;2.17;1.05;;;5.30;99.90;;;;;;4828376;29;20046;-77
2021/03/14 12:51:07;;;;;;;2.92;1.08;;;5.30;99.90;;;;;;4828149;29;20141;-77
2021/03/14 12:53:39;;;;;;;5.45;1.20;;;5.30;99.90;;;;;;4829074;29;20498;-78
2021/03/14 12:56:11;;;;;;;2.30;0.90;;;5.40;99.80;;;;;;4843042;29;20181;-78
2021/03/14 12:58:52;;;;;;;2.75;1.23;;;5.40;99.90;;;;;;4827707;29;20065;-78
2021/03/14 13:01:25;;;;;;;1.70;0.73;;;5.50;98.40;;;;;;4813971;29;20060;-79
2021/03/14 13:03:52;;;;;;;2.63;0.70;;;5.40;98.50;;;;;;4825490;29;20084;-77
2021/03/14 13:06:24;;;;;;;1.63;0.60;;;5.40;97.80;;;;;;4829001;29;20054;-78
2021/03/14 13:08:56;;;;;;;1.40;0.98;;;5.40;99.90;;;;;;4828995;29;20068;-78
2021/03/14 13:32:33;;;;;;;0.68;0.60;;;6.20;95.50;;;;;;4914676;24;20049;-80
2021/03/14 13:55:51;;;;;;;0.73;0.45;;;6.00;93.10;;;;;;4804629;29;20043;-80
2021/03/14 13:58:51;;;;;;;2.30;0.82;;;6.10;93.50;;;;;;4822228;29;20094;-80
2021/03/14 14:32:59;;;;;;;2.10;0.90;;;6.10;87.10;;;;;;4830366;29;20057;-80
2021/03/14 15:11:15;;;;;;;1.05;0.80;;;5.30;99.90;;;;;;4772508;30;20059;-75
2021/03/14 18:35:32;;;;;;;3.38;2.40;;;1.90;99.90;;;;;;4846323;29;20408;-76
2021/03/14 18:38:06;;;;;;;3.53;2.85;;;1.90;99.90;;;;;;4809181;29;20141;-78
2021/03/14 19:07:40;;;;;;;4.53;3.33;;;1.90;99.90;;;;;;4870517;29;20034;-80
2021/03/14 19:10:29;;;;;;;4.35;3.53;;;1.90;99.90;;;;;;4843866;29;20068;-81
2021/03/14 19:47:51;;;;;;;2.95;2.53;;;2.10;99.90;;;;;;4705216;30;20057;-82
2021/03/14 21:05:07;;;;;;;5.15;3.33;;;2.30;99.90;;;;;;4846751;29;20071;-77